Time;durP1;ratioP1;P1;durP2;ratioP2;P2;SDS_P1;SDS_P2;PMS_P1;PMS_P2;Temp;Humidity;BMP_temperature;BMP_pressure;BME280_temperature;BME280_humidity;BME280_pressure;Samples;Min_cycle;Max_cycle;Signal;HPM_P1;HPM_P2
2023/04/11 00:00:11;;;;;;;1.30;0.90;;;9.70;1.00;;;;;;5026779;28;20211;-67
2023/04/11 00:02:38;;;;;;;3.03;1.13;;;9.70;1.00;;;;;;5042925;28;20211;-66
2023/04/11 00:05:07;;;;;;;1.97;1.23;;;9.60;1.00;;;;;;5045662;28;20325;-66
2023/04/11 00:07:34;;;;;;;1.70;1.00;;;9.60;1.00;;;;;;5040857;28;20215;-68
2023/04/11 00:10:01;;;;;;;1.20;1.00;;;9.60;1.00;;;;;;5047795;28;20286;-68
2023/04/11 00:12:28;;;;;;;2.03;1.00;;;9.70;1.00;;;;;;5046638;28;20249;-66
2023/04/11 00:14:55;;;;;;;2.20;1.40;;;9.60;1.00;;;;;;5039074;28;20219;-66
2023/04/11 00:17:23;;;;;;;2.37;1.20;;;9.60;1.00;;;;;;5044060;28;20208;-66
2023/04/11 00:19:52;;;;;;;1.93;1.20;;;9.60;1.00;;;;;;5027335;28;21000;-67
2023/04/11 00:22:19;;;;;;;2.57;1.30;;;9.60;1.00;;;;;;5043769;28;20214;-67
2023/04/11 00:24:46;;;;;;;5.63;1.27;;;9.50;1.00;;;;;;5033086;28;20214;-66
2023/04/11 00:27:13;;;;;;;4.37;1.40;;;9.50;1.00;;;;;;5049403;28;20223;-68
2023/04/11 00:29:40;;;;;;;3.07;1.20;;;9.60;1.00;;;;;;5025164;28;20574;-67
2023/04/11 00:32:07;;;;;;;3.20;1.30;;;9.70;1.00;;;;;;5025174;28;20203;-66
2023/04/11 00:34:34;;;;;;;2.37;1.40;;;9.70;1.00;;;;;;5026908;28;20191;-68
2023/04/11 00:37:01;;;;;;;2.03;1.10;;;9.70;1.00;;;;;;5036498;28;20226;-66
2023/04/11 00:39:32;;;;;;;2.43;1.30;;;9.60;1.00;;;;;;5037766;28;20196;-70
2023/04/11 00:42:07;;;;;;;4.70;1.50;;;9.60;1.00;;;;;;5022099;28;20206;-66
2023/04/11 00:44:35;;;;;;;1.73;1.30;;;9.50;1.00;;;;;;5039678;28;20282;-66
2023/04/11 00:47:05;;;;;;;1.97;1.30;;;9.50;1.00;;;;;;5023591;28;20192;-67
2023/04/11 00:49:33;;;;;;;3.23;1.30;;;9.50;1.00;;;;;;5039852;28;21014;-65
2023/04/11 00:52:01;;;;;;;2.63;1.80;;;9.60;1.00;;;;;;5038319;28;20682;-66
2023/04/11 00:54:29;;;;;;;3.10;1.40;;;9.60;1.00;;;;;;5038618;28;20199;-66
2023/04/11 00:57:02;;;;;;;4.10;1.40;;;9.60;1.00;;;;;;5036691;28;20283;-66
2023/04/11 00:59:31;;;;;;;3.60;1.73;;;9.60;1.00;;;;;;5040937;28;20203;-67
2023/04/11 01:01:59;;;;;;;4.50;1.90;;;9.60;1.00;;;;;;5041390;28;20455;-65
2023/04/11 01:04:28;;;;;;;3.43;1.80;;;9.60;1.00;;;;;;5043385;28;20227;-64
2023/04/11 01:07:04;;;;;;;4.70;1.83;;;9.60;1.00;;;;;;5046898;28;20204;-65
2023/04/11 01:09:34;;;;;;;7.63;1.80;;;9.60;1.00;;;;;;5062127;28;20203;-65
2023/04/11 01:12:03;;;;;;;4.33;2.07;;;9.60;1.00;;;;;;5054964;28;20305;-66
2023/04/11 01:14:30;;;;;;;3.33;1.67;;;9.50;1.00;;;;;;5040658;28;20313;-66
2023/04/11 01:17:00;;;;;;;6.63;2.60;;;9.60;1.00;;;;;;5035048;28;20206;-66
2023/04/11 01:19:29;;;;;;;3.70;1.73;;;9.60;1.00;;;;;;5025843;28;20200;-67
2023/04/11 01:21:58;;;;;;;4.40;1.60;;;9.70;1.00;;;;;;5027814;28;20202;-67
2023/04/11 01:24:25;;;;;;;4.60;1.80;;;9.70;1.00;;;;;;5012711;28;20203;-67
2023/04/11 01:26:53;;;;;;;4.53;1.97;;;9.70;1.00;;;;;;5029519;28;20188;-67
2023/04/11 01:29:20;;;;;;;3.13;1.63;;;9.70;1.00;;;;;;5025346;28;20228;-65
2023/04/11 01:31:49;;;;;;;4.97;1.97;;;9.80;1.00;;;;;;5043847;28;20200;-65
2023/04/11 01:34:17;;;;;;;6.70;1.77;;;9.70;1.00;;;;;;5052368;28;20687;-65
2023/04/11 01:36:45;;;;;;;6.23;2.00;;;9.70;1.00;;;;;;5036422;28;20191;-65
2023/04/11 01:39:12;;;;;;;6.03;2.03;;;9.70;1.00;;;;;;5027607;28;20258;-66
2023/04/11 01:41:41;;;;;;;6.30;2.10;;;9.70;1.00;;;;;;5028509;28;20207;-66
2023/04/11 01:44:08;;;;;;;6.37;2.27;;;9.70;1.00;;;;;;5038116;28;20188;-66
2023/04/11 01:46:35;;;;;;;5.73;2.17;;;9.70;1.00;;;;;;5037573;28;20216;-66
2023/04/11 01:49:03;;;;;;;6.07;2.10;;;9.60;1.00;;;;;;5028870;28;20235;-66
2023/04/11 01:51:31;;;;;;;4.93;1.90;;;9.50;1.00;;;;;;5015462;28;20204;-66
2023/04/11 01:53:58;;;;;;;5.43;1.67;;;9.60;1.00;;;;;;5035144;28;20206;-68
2023/04/11 01:56:25;;;;;;;4.53;2.00;;;9.50;1.00;;;;;;5031338;28;20198;-67
2023/04/11 01:58:52;;;;;;;6.63;2.03;;;9.60;1.00;;;;;;5032163;28;21190;-67
2023/04/11 02:01:20;;;;;;;11.17;2.40;;;9.60;1.00;;;;;;5016878;28;20199;-67
2023/04/11 02:03:47;;;;;;;6.87;2.47;;;9.60;1.00;;;;;;5032499;28;20288;-67
2023/04/11 02:06:15;;;;;;;6.40;2.30;;;9.50;1.00;;;;;;5037463;28;22484;-68
2023/04/11 02:08:43;;;;;;;7.60;2.17;;;9.40;1.00;;;;;;5031706;28;20291;-67
2023/04/11 02:11:10;;;;;;;4.57;2.00;;;9.30;1.00;;;;;;5014444;28;20363;-69
2023/04/11 02:13:37;;;;;;;5.67;2.10;;;9.40;1.00;;;;;;5033685;28;20305;-69
2023/04/11 02:16:10;;;;;;;7.67;2.40;;;9.40;1.00;;;;;;5027897;28;20195;-74
2023/04/11 02:18:38;;;;;;;8.53;2.60;;;9.40;1.00;;;;;;5013380;28;20198;-69
2023/04/11 02:21:05;;;;;;;7.90;2.50;;;9.50;1.00;;;;;;5032517;28;20639;-69
2023/04/11 02:23:33;;;;;;;11.77;3.03;;;9.50;1.00;;;;;;5028860;28;21182;-69
2023/04/11 02:26:01;;;;;;;6.93;2.30;;;9.50;1.00;;;;;;5033345;28;20211;-69
2023/04/11 02:28:29;;;;;;;9.30;3.40;;;9.50;1.00;;;;;;5027897;28;20983;-69
2023/04/11 02:30:56;;;;;;;9.50;3.30;;;9.60;1.00;;;;;;5030332;28;20192;-69
2023/04/11 02:33:23;;;;;;;10.40;3.27;;;9.70;1.00;;;;;;5025346;28;20207;-69
2023/04/11 02:35:50;;;;;;;11.60;2.80;;;9.70;1.00;;;;;;5011030;28;20200;-69
2023/04/11 02:38:17;;;;;;;9.60;3.13;;;9.70;1.00;;;;;;5028547;28;20281;-69
2023/04/11 02:40:44;;;;;;;11.10;3.33;;;9.70;1.00;;;;;;5034121;28;20210;-69
2023/04/11 02:43:11;;;;;;;10.87;3.60;;;9.70;1.00;;;;;;5047629;28;20199;-67
2023/04/11 02:45:40;;;;;;;12.17;4.17;;;9.70;1.00;;;;;;5047188;28;20737;-68
2023/04/11 02:48:08;;;;;;;9.57;3.03;;;9.60;1.00;;;;;;5010424;28;20220;-67
2023/04/11 02:50:40;;;;;;;11.03;3.73;;;9.60;1.00;;;;;;5026868;28;22208;-66
2023/04/11 02:53:08;;;;;;;10.93;3.60;;;9.50;1.00;;;;;;5027249;28;20214;-65
2023/04/11 02:55:38;;;;;;;11.57;4.00;;;9.50;1.00;;;;;;5010550;28;20203;-70
2023/04/11 02:58:06;;;;;;;13.03;5.23;;;9.30;1.00;;;;;;5024163;28;20742;-66
2023/04/11 03:00:33;;;;;;;16.57;5.07;;;9.20;1.00;;;;;;5011665;28;21008;-67
2023/04/11 03:03:05;;;;;;;14.50;5.73;;;9.10;1.00;;;;;;5024749;28;20226;-68
2023/04/11 03:05:38;;;;;;;12.27;5.67;;;9.00;1.00;;;;;;5027673;28;20261;-67
2023/04/11 03:08:07;;;;;;;16.00;5.97;;;9.00;1.00;;;;;;5029388;28;20223;-67
2023/04/11 03:10:39;;;;;;;20.87;5.87;;;9.00;1.00;;;;;;5029820;28;20744;-68
2023/04/11 03:13:09;;;;;;;22.43;7.13;;;8.90;1.00;;;;;;5040861;28;20202;-68
2023/04/11 03:15:37;;;;;;;20.10;6.60;;;8.90;1.00;;;;;;5025474;28;20196;-68
2023/04/11 03:18:07;;;;;;;16.40;6.77;;;9.00;1.00;;;;;;5025828;28;20211;-69
2023/04/11 03:20:37;;;;;;;19.80;7.20;;;9.10;1.00;;;;;;5024296;28;20219;-68
2023/04/11 03:23:06;;;;;;;21.73;6.90;;;9.20;1.00;;;;;;5029394;28;21388;-68
2023/04/11 03:25:33;;;;;;;15.03;6.40;;;9.20;1.00;;;;;;5010553;28;20578;-68
2023/04/11 03:28:03;;;;;;;18.53;6.20;;;9.20;1.00;;;;;;5029991;28;20674;-68
2023/04/11 03:30:31;;;;;;;15.13;6.87;;;9.20;1.00;;;;;;5026362;28;20192;-68
2023/04/11 03:32:59;;;;;;;20.93;7.00;;;9.20;1.00;;;;;;5027823;28;20843;-68
2023/04/11 03:35:28;;;;;;;18.77;6.13;;;9.10;1.00;;;;;;5028903;28;20234;-68
2023/04/11 03:37:56;;;;;;;22.77;7.33;;;9.00;1.00;;;;;;5011878;28;20326;-68
2023/04/11 03:40:24;;;;;;;17.40;6.00;;;9.00;1.00;;;;;;5027909;28;20204;-68
2023/04/11 03:43:02;;;;;;;18.00;6.40;;;9.20;1.00;;;;;;5027516;28;20671;-68
2023/04/11 03:45:33;;;;;;;19.83;6.07;;;9.10;1.00;;;;;;5025669;28;20212;-69
2023/04/11 03:48:04;;;;;;;17.73;6.10;;;9.10;1.00;;;;;;5029718;28;20630;-69
2023/04/11 03:50:51;;;;;;;20.63;6.07;;;9.10;1.00;;;;;;5032129;28;20234;-68
2023/04/11 03:53:25;;;;;;;19.00;6.33;;;9.10;1.00;;;;;;5026647;28;20192;-69
2023/04/11 03:55:56;;;;;;;17.13;6.43;;;9.00;1.00;;;;;;5013068;28;20935;-68
2023/04/11 03:58:30;;;;;;;18.23;5.90;;;9.00;1.00;;;;;;5029138;28;20204;-69
2023/04/11 04:00:57;;;;;;;20.40;5.97;;;9.00;1.00;;;;;;5027520;28;21857;-68
2023/04/11 04:03:24;;;;;;;18.27;6.23;;;9.10;1.00;;;;;;5027299;28;20246;-69
2023/04/11 04:05:51;;;;;;;19.53;5.83;;;9.20;1.00;;;;;;5026918;28;20596;-69
2023/04/11 04:08:20;;;;;;;16.23;5.53;;;9.20;1.00;;;;;;5026290;28;20212;-69
2023/04/11 04:10:48;;;;;;;19.73;6.10;;;9.20;1.00;;;;;;5022649;28;20195;-69
2023/04/11 04:13:15;;;;;;;25.47;6.00;;;9.20;1.00;;;;;;5028139;28;20204;-68
2023/04/11 04:16:02;;;;;;;21.93;5.83;;;9.30;1.00;;;;;;5030978;28;20556;-68
2023/04/11 04:18:31;;;;;;;22.20;5.83;;;9.30;1.00;;;;;;5025794;28;20204;-68
2023/04/11 04:20:59;;;;;;;20.23;6.80;;;9.30;1.00;;;;;;5027492;28;20582;-69
2023/04/11 04:23:26;;;;;;;22.67;5.83;;;9.20;1.00;;;;;;5027350;28;20265;-68
2023/04/11 04:26:16;;;;;;;13.17;5.47;;;9.10;1.00;;;;;;5033428;28;20342;-68
2023/04/11 04:28:52;;;;;;;18.03;6.17;;;9.10;1.00;;;;;;5025399;28;20482;-69
2023/04/11 04:31:28;;;;;;;24.20;6.83;;;9.10;1.00;;;;;;5031095;28;20740;-69
2023/04/11 04:34:07;;;;;;;23.13;7.10;;;9.20;1.00;;;;;;5008552;28;20779;-69
2023/04/11 04:36:45;;;;;;;19.40;6.23;;;9.20;1.00;;;;;;5024068;28;20199;-70
2023/04/11 04:39:18;;;;;;;18.90;5.73;;;9.20;1.00;;;;;;5026618;28;20249;-68
2023/04/11 04:41:56;;;;;;;24.00;6.10;;;9.20;1.00;;;;;;5024849;28;20624;-68
2023/04/11 04:44:27;;;;;;;25.03;6.60;;;9.20;1.00;;;;;;5026603;28;20230;-68
2023/04/11 04:46:57;;;;;;;17.80;6.10;;;9.20;1.00;;;;;;5028127;28;20208;-68
2023/04/11 04:49:27;;;;;;;13.87;5.83;;;9.30;1.00;;;;;;5026187;28;20695;-68
2023/04/11 04:51:54;;;;;;;18.83;6.27;;;9.30;1.00;;;;;;5023733;28;20199;-67
2023/04/11 04:54:22;;;;;;;20.37;7.27;;;9.30;1.00;;;;;;5022967;28;20200;-69
2023/04/11 04:56:51;;;;;;;24.27;6.77;;;9.30;1.00;;;;;;5024947;28;20203;-66
2023/04/11 04:59:18;;;;;;;20.83;6.60;;;9.30;1.00;;;;;;5031411;28;20221;-66
2023/04/11 05:01:52;;;;;;;22.43;6.87;;;9.20;1.00;;;;;;5014595;28;20253;-67
2023/04/11 05:04:25;;;;;;;22.57;7.30;;;9.20;1.00;;;;;;5025125;28;20235;-66
2023/04/11 05:06:56;;;;;;;19.90;6.40;;;9.00;1.00;;;;;;5011208;28;20203;-65
2023/04/11 05:09:23;;;;;;;21.60;6.90;;;8.80;1.00;;;;;;5031543;28;20223;-65
2023/04/11 05:11:55;;;;;;;20.70;7.90;;;8.80;1.00;;;;;;5011019;28;20192;-65
2023/04/11 05:14:23;;;;;;;20.93;7.33;;;8.80;1.00;;;;;;5013319;28;21320;-65
2023/04/11 05:16:50;;;;;;;24.70;6.50;;;8.90;1.00;;;;;;5033993;28;20192;-65
2023/04/11 05:19:18;;;;;;;21.07;6.27;;;8.90;1.00;;;;;;5030954;28;20207;-65
2023/04/11 05:27:04;;;;;;;21.47;6.27;;;8.80;1.00;;;;;;5032294;28;20234;-68
2023/04/11 05:31:12;;;;;;;19.77;6.70;;;8.80;1.00;;;;;;5033497;28;20700;-67
2023/04/11 05:35:20;;;;;;;19.67;5.80;;;8.70;1.00;;;;;;5032877;28;20183;-65
2023/04/11 05:39:28;;;;;;;18.00;5.77;;;8.80;1.00;;;;;;5027914;28;20550;-66
2023/04/11 05:43:34;;;;;;;17.67;6.07;;;8.80;1.00;;;;;;5031453;28;20218;-65
2023/04/11 05:47:41;;;;;;;18.27;6.17;;;8.70;1.00;;;;;;5053588;28;20305;-68
2023/04/11 05:51:48;;;;;;;13.83;5.00;;;8.90;1.00;;;;;;5038212;28;20192;-68
2023/04/11 05:55:55;;;;;;;15.03;4.70;;;9.20;1.00;;;;;;5036413;28;20537;-69
2023/04/11 06:00:07;;;;;;;18.97;5.90;;;9.90;1.00;;;;;;5035031;28;21021;-65
2023/04/11 08:10:34;;;;;;;7.38;2.10;;;23.20;1.00;;;;;;5031986;28;20255;-66
2023/04/11 08:13:01;;;;;;;5.18;1.98;;;18.70;1.00;;;;;;5001597;28;20250;-66
2023/04/11 08:15:28;;;;;;;7.80;2.00;;;17.30;1.00;;;;;;5014755;28;20226;-67
2023/04/11 08:17:56;;;;;;;8.45;2.03;;;17.50;1.00;;;;;;5019913;28;20282;-66
2023/04/11 08:20:23;;;;;;;4.88;1.90;;;18.80;1.00;;;;;;5019652;28;20218;-66
2023/04/11 08:22:50;;;;;;;12.35;2.10;;;18.00;1.00;;;;;;5019964;28;20203;-66
2023/04/11 08:25:24;;;;;;;6.40;2.13;;;17.60;1.00;;;;;;5023907;28;20188;-66
2023/04/11 08:27:51;;;;;;;6.35;2.17;;;18.70;1.00;;;;;;5019071;28;20639;-67
2023/04/11 08:30:18;;;;;;;6.72;1.92;;;21.90;1.00;;;;;;5024324;28;20215;-65
2023/04/11 08:32:45;;;;;;;8.13;2.10;;;20.40;1.00;;;;;;5023619;28;20225;-65
2023/04/11 08:35:13;;;;;;;6.25;2.22;;;18.00;1.00;;;;;;5017546;28;20242;-67
2023/04/11 08:37:40;;;;;;;6.80;2.15;;;15.70;1.00;;;;;;4997308;28;20197;-67
2023/04/11 08:40:07;;;;;;;9.07;2.30;;;14.10;1.00;;;;;;4991677;28;20961;-67
2023/04/11 08:42:35;;;;;;;8.60;2.30;;;14.00;1.00;;;;;;5000369;28;20211;-67
2023/04/11 08:45:04;;;;;;;7.75;2.58;;;16.90;1.00;;;;;;5021102;28;20250;-68
2023/04/11 08:47:31;;;;;;;6.45;2.20;;;22.30;1.00;;;;;;5024664;28;20201;-65
2023/04/11 08:49:58;;;;;;;7.35;2.17;;;23.30;1.00;;;;;;5021604;28;20804;-65
2023/04/11 08:52:27;;;;;;;7.60;2.47;;;23.40;1.00;;;;;;5010225;28;20200;-65
2023/04/11 08:54:54;;;;;;;9.23;2.63;;;26.10;1.00;;;;;;5025959;28;20502;-65
2023/04/11 08:57:26;;;;;;;7.68;2.78;;;23.40;1.00;;;;;;5017047;28;20220;-65
2023/04/11 08:59:55;;;;;;;7.88;2.42;;;27.30;1.00;;;;;;5027884;28;20219;-65
2023/04/11 09:02:22;;;;;;;6.22;2.15;;;29.70;1.00;;;;;;5021455;28;20220;-65
2023/04/11 09:04:50;;;;;;;6.82;2.22;;;27.90;1.00;;;;;;5026061;28;20193;-65
2023/04/11 09:07:17;;;;;;;5.30;2.10;;;25.90;1.00;;;;;;5008860;28;20258;-65
2023/04/11 09:09:45;;;;;;;5.88;1.98;;;22.80;1.00;;;;;;5027934;28;20702;-65
2023/04/11 09:12:12;;;;;;;6.90;2.63;;;20.20;1.00;;;;;;5044533;28;20226;-65
2023/04/11 09:14:39;;;;;;;10.80;2.70;;;19.30;1.00;;;;;;5042709;28;20273;-65
2023/04/11 09:17:15;;;;;;;8.93;2.63;;;17.90;1.00;;;;;;5045570;28;20194;-67
2023/04/11 09:19:42;;;;;;;10.38;2.42;;;16.50;1.00;;;;;;5010598;28;20203;-67
2023/04/11 09:22:14;;;;;;;9.05;2.50;;;15.60;1.00;;;;;;5030220;28;20978;-66
2023/04/11 09:24:41;;;;;;;14.98;3.10;;;14.50;1.00;;;;;;5045605;28;20195;-67
2023/04/11 09:27:13;;;;;;;11.07;2.53;;;13.90;1.00;;;;;;5027358;28;20220;-66
2023/04/11 09:29:46;;;;;;;7.37;2.37;;;13.70;1.00;;;;;;5048575;28;20754;-67
2023/04/11 09:32:31;;;;;;;11.67;2.80;;;14.00;1.00;;;;;;5042124;28;20188;-68
2023/04/11 09:35:19;;;;;;;6.03;2.40;;;14.30;1.00;;;;;;5026125;28;20224;-69
2023/04/11 09:37:57;;;;;;;12.67;3.13;;;14.10;1.00;;;;;;5045037;28;20529;-65
2023/04/11 09:40:25;;;;;;;7.03;3.30;;;13.90;1.00;;;;;;5042146;28;20278;-67
2023/04/11 09:43:02;;;;;;;5.70;1.63;;;13.30;1.00;;;;;;5040781;28;20196;-65
2023/04/11 09:45:30;;;;;;;6.73;2.00;;;12.20;1.00;;;;;;5024990;28;20458;-66
2023/04/11 09:48:07;;;;;;;6.00;1.93;;;11.30;1.00;;;;;;5048071;28;20200;-68
2023/04/11 09:50:37;;;;;;;4.90;1.93;;;11.10;1.00;;;;;;5029223;28;20223;-65
2023/04/11 09:53:05;;;;;;;7.73;1.70;;;11.10;1.00;;;;;;5048413;28;20678;-65
2023/04/11 09:55:32;;;;;;;4.47;1.50;;;12.00;1.00;;;;;;5025413;28;20825;-68
2023/04/11 09:58:00;;;;;;;5.30;1.80;;;13.00;1.00;;;;;;5047956;28;20685;-67
2023/04/11 10:00:31;;;;;;;4.38;1.42;;;17.70;1.00;;;;;;5047057;28;20199;-66
2023/04/11 10:02:58;;;;;;;3.95;1.98;;;18.90;1.00;;;;;;5044326;28;20226;-63
2023/04/11 10:05:27;;;;;;;4.03;1.85;;;23.90;1.00;;;;;;5042523;28;20306;-64
2023/04/11 10:08:07;;;;;;;9.18;2.10;;;26.70;1.00;;;;;;5025000;28;20652;-64
2023/04/11 10:10:35;;;;;;;8.30;2.25;;;29.30;1.00;;;;;;5028023;28;20258;-65
2023/04/11 10:13:22;;;;;;;7.07;2.15;;;30.20;1.00;;;;;;5042297;28;20199;-67
2023/04/11 10:16:15;;;;;;;9.65;2.38;;;25.50;1.00;;;;;;5040877;28;21115;-64
2023/04/11 10:18:51;;;;;;;6.63;2.30;;;21.00;1.00;;;;;;5042852;28;20198;-64
2023/04/11 10:21:33;;;;;;;9.40;2.47;;;18.10;1.00;;;;;;5042011;28;20283;-66
2023/04/11 10:24:32;;;;;;;9.00;2.70;;;16.40;1.00;;;;;;5042825;28;20608;-66
2023/04/11 10:27:02;;;;;;;6.03;2.30;;;15.00;1.00;;;;;;5007576;28;20203;-68
2023/04/11 10:29:32;;;;;;;9.52;2.60;;;14.70;1.00;;;;;;5026998;28;20229;-66
2023/04/11 10:32:14;;;;;;;9.77;2.95;;;14.30;1.00;;;;;;5025706;28;20249;-65
2023/04/11 10:34:53;;;;;;;9.87;2.80;;;13.80;1.00;;;;;;5043032;28;20840;-65
2023/04/11 10:37:32;;;;;;;12.23;2.90;;;13.20;1.00;;;;;;5031407;28;20195;-65
2023/04/11 10:39:59;;;;;;;11.37;2.80;;;12.90;1.00;;;;;;5049225;28;20223;-66
2023/04/11 10:42:41;;;;;;;8.37;2.70;;;14.20;1.00;;;;;;5047036;28;20202;-68
2023/04/11 10:45:16;;;;;;;6.45;2.00;;;17.10;1.00;;;;;;5044576;28;20195;-68
2023/04/11 10:47:55;;;;;;;6.78;2.55;;;21.00;1.00;;;;;;5042905;28;20237;-66
2023/04/11 10:50:22;;;;;;;4.20;1.80;;;23.70;1.00;;;;;;5043128;28;20218;-65
2023/04/11 10:52:49;;;;;;;9.32;2.17;;;25.20;1.00;;;;;;5024083;28;20652;-66
2023/04/11 10:55:17;;;;;;;7.15;2.35;;;25.10;1.00;;;;;;5026067;28;20283;-66
2023/04/11 10:58:12;;;;;;;9.25;2.20;;;23.50;1.00;;;;;;5043030;28;20278;-66
2023/04/11 11:00:48;;;;;;;6.32;2.45;;;22.10;1.00;;;;;;5043517;28;20776;-66
2023/04/11 11:03:30;;;;;;;8.18;2.50;;;21.30;1.00;;;;;;5029495;28;20700;-65
2023/04/11 11:06:02;;;;;;;7.63;2.20;;;21.30;1.00;;;;;;5051972;28;20195;-65
2023/04/11 11:08:31;;;;;;;5.25;2.10;;;21.60;1.00;;;;;;5036464;28;20199;-65
2023/04/11 11:11:06;;;;;;;4.90;2.13;;;20.80;1.00;;;;;;5041530;28;20227;-66
2023/04/11 11:13:52;;;;;;;10.10;2.58;;;20.00;1.00;;;;;;5033203;28;20278;-66
2023/04/11 11:16:24;;;;;;;8.20;2.60;;;19.40;1.00;;;;;;5040847;28;20601;-67
2023/04/11 11:18:55;;;;;;;6.18;2.40;;;18.10;1.00;;;;;;5024801;28;20249;-67
2023/04/11 11:21:24;;;;;;;5.55;2.30;;;17.50;1.00;;;;;;5026190;28;20671;-68
2023/04/11 11:24:01;;;;;;;5.88;2.05;;;18.60;1.00;;;;;;5022531;28;20665;-65
2023/04/11 11:26:42;;;;;;;7.55;2.42;;;19.30;1.00;;;;;;5028704;28;20792;-66
2023/04/11 11:29:10;;;;;;;4.70;2.00;;;20.10;1.00;;;;;;5040373;28;20253;-66
2023/04/11 11:31:45;;;;;;;6.38;1.77;;;20.00;1.00;;;;;;5041275;28;20191;-66
2023/04/11 11:34:12;;;;;;;7.45;2.50;;;20.90;1.00;;;;;;5042315;28;20188;-66
2023/04/11 11:36:51;;;;;;;5.68;2.30;;;21.40;1.00;;;;;;5026832;28;20196;-66
2023/04/11 11:39:18;;;;;;;6.57;2.20;;;22.00;1.00;;;;;;5035188;28;20211;-66
2023/04/11 11:41:49;;;;;;;5.00;2.20;;;22.10;1.00;;;;;;5020199;28;20191;-68
2023/04/11 11:44:25;;;;;;;4.03;1.90;;;22.70;1.00;;;;;;5041107;28;20364;-67
2023/04/11 11:47:13;;;;;;;5.93;2.08;;;20.20;1.00;;;;;;5035090;28;20664;-66
2023/04/11 11:49:50;;;;;;;6.63;2.20;;;19.30;1.00;;;;;;5021482;28;20230;-66
2023/04/11 11:52:39;;;;;;;5.63;1.95;;;19.60;1.00;;;;;;5039900;28;20209;-66
2023/04/11 11:55:16;;;;;;;7.75;2.17;;;19.50;1.00;;;;;;5040914;28;20188;-66
2023/04/11 11:57:44;;;;;;;6.70;2.28;;;19.70;1.00;;;;;;5041851;28;20203;-68
2023/04/11 12:00:12;;;;;;;5.47;2.42;;;19.30;1.00;;;;;;5039863;28;20721;-66
2023/04/11 12:02:42;;;;;;;7.30;2.40;;;19.40;1.00;;;;;;5040452;28;20322;-66
2023/04/11 12:05:11;;;;;;;5.38;1.60;;;19.70;1.00;;;;;;5020082;28;20211;-66
2023/04/11 12:07:39;;;;;;;4.78;1.90;;;20.10;1.00;;;;;;5041744;28;20201;-65
2023/04/11 12:10:10;;;;;;;4.57;1.80;;;19.80;1.00;;;;;;5020819;28;20703;-65
2023/04/11 12:12:42;;;;;;;5.32;1.98;;;20.10;1.00;;;;;;5020473;28;20278;-66
2023/04/11 12:15:22;;;;;;;6.45;2.22;;;20.30;1.00;;;;;;5040735;28;20202;-66
2023/04/11 12:17:51;;;;;;;6.32;2.28;;;19.90;1.00;;;;;;5041161;28;20192;-68
2023/04/11 12:20:26;;;;;;;4.25;1.80;;;18.10;1.00;;;;;;5038854;28;20198;-66
2023/04/11 12:22:53;;;;;;;7.10;2.20;;;18.90;1.00;;;;;;5040408;28;20196;-66
2023/04/11 12:25:21;;;;;;;9.10;2.47;;;19.50;1.00;;;;;;5041858;28;20329;-68
2023/04/11 12:27:48;;;;;;;9.18;2.40;;;18.70;1.00;;;;;;5024972;28;20227;-67
2023/04/11 12:30:15;;;;;;;4.57;1.90;;;17.80;1.00;;;;;;5038655;28;20216;-68
2023/04/11 12:32:43;;;;;;;7.47;2.38;;;17.80;1.00;;;;;;5020610;28;20190;-66
2023/04/11 12:35:11;;;;;;;5.35;2.13;;;18.20;1.00;;;;;;5034588;28;20195;-66
2023/04/11 12:37:39;;;;;;;6.78;2.55;;;18.30;1.00;;;;;;5016872;28;20290;-68
2023/04/11 12:40:11;;;;;;;6.90;2.65;;;17.60;1.00;;;;;;5041878;28;20203;-68
2023/04/11 12:42:39;;;;;;;6.90;2.45;;;17.30;1.00;;;;;;5021877;28;20192;-68
2023/04/11 12:45:10;;;;;;;5.43;1.95;;;17.40;1.00;;;;;;5022382;28;20200;-67
2023/04/11 12:47:38;;;;;;;7.95;2.38;;;17.40;1.00;;;;;;5037973;28;20211;-66
2023/04/11 12:50:06;;;;;;;8.85;2.20;;;17.20;1.00;;;;;;5022527;28;20228;-66
2023/04/11 12:52:33;;;;;;;5.70;2.42;;;16.80;1.00;;;;;;5038663;28;20199;-67
2023/04/11 12:55:01;;;;;;;7.35;2.15;;;17.40;1.00;;;;;;5023946;28;21712;-66
2023/04/11 12:57:28;;;;;;;9.27;2.80;;;16.80;1.00;;;;;;5040867;28;20196;-68
2023/04/11 12:59:55;;;;;;;8.73;2.28;;;16.90;1.00;;;;;;5040724;28;20207;-67
2023/04/11 13:02:22;;;;;;;9.65;2.35;;;17.40;1.00;;;;;;5013596;28;20223;-67
2023/04/11 13:04:53;;;;;;;6.57;2.38;;;17.00;1.00;;;;;;5018544;28;20227;-66
2023/04/11 13:07:21;;;;;;;7.28;2.20;;;16.30;1.00;;;;;;5032728;28;20188;-67
2023/04/11 13:09:48;;;;;;;7.45;3.10;;;16.50;1.00;;;;;;5022158;28;20219;-67
2023/04/11 13:12:15;;;;;;;7.00;2.35;;;16.10;1.00;;;;;;5023906;28;20223;-67
2023/04/11 13:14:42;;;;;;;8.88;2.45;;;16.20;1.00;;;;;;5023678;28;20192;-67
2023/04/11 13:17:09;;;;;;;5.78;2.28;;;16.30;1.00;;;;;;5023096;28;20507;-67
2023/04/11 13:19:36;;;;;;;7.00;2.00;;;16.10;1.00;;;;;;5021965;28;20192;-67
2023/04/11 13:22:03;;;;;;;8.50;2.33;;;15.90;1.00;;;;;;5030831;28;20196;-67
2023/04/11 13:24:30;;;;;;;6.47;2.25;;;16.00;1.00;;;;;;5009130;28;20195;-67
2023/04/11 13:26:58;;;;;;;7.65;2.10;;;16.10;1.00;;;;;;5018013;28;20204;-67
2023/04/11 13:29:25;;;;;;;4.40;1.90;;;15.90;1.00;;;;;;5021975;28;20275;-67
2023/04/11 13:31:52;;;;;;;8.68;2.15;;;16.10;1.00;;;;;;5021645;28;20227;-68
2023/04/11 13:34:19;;;;;;;6.88;2.40;;;16.00;1.00;;;;;;5037802;28;20285;-67
2023/04/11 13:36:46;;;;;;;3.97;2.17;;;15.90;1.00;;;;;;5023028;28;20196;-67
2023/04/11 13:39:13;;;;;;;6.90;2.25;;;15.90;1.00;;;;;;5041239;28;20203;-66
2023/04/11 13:41:40;;;;;;;7.88;2.47;;;16.10;1.00;;;;;;5025690;28;20199;-67
2023/04/11 13:44:07;;;;;;;6.03;1.98;;;16.50;1.00;;;;;;5042453;28;20625;-66
2023/04/11 13:46:34;;;;;;;8.52;2.17;;;16.60;1.00;;;;;;5034494;28;20204;-66
2023/04/11 13:49:01;;;;;;;5.78;2.00;;;16.30;1.00;;;;;;5023833;28;21605;-68
2023/04/11 13:51:28;;;;;;;4.85;2.05;;;16.30;1.00;;;;;;5042176;28;20220;-67
2023/04/11 13:53:55;;;;;;;5.43;2.20;;;16.50;1.00;;;;;;5026092;28;20226;-67
2023/04/11 13:56:23;;;;;;;5.97;2.28;;;15.90;1.00;;;;;;5044454;28;20195;-67
2023/04/11 13:58:50;;;;;;;5.10;1.70;;;15.90;1.00;;;;;;5022998;28;20204;-66
2023/04/11 14:01:21;;;;;;;6.35;1.88;;;16.00;1.00;;;;;;5003435;28;20294;-66
2023/04/11 14:03:49;;;;;;;6.10;1.83;;;15.90;1.00;;;;;;5016889;28;20231;-66
2023/04/11 14:06:18;;;;;;;4.68;1.90;;;15.70;1.00;;;;;;5043978;28;20230;-66
2023/04/11 14:08:45;;;;;;;5.93;2.20;;;15.50;1.00;;;;;;5020839;28;20261;-67
2023/04/11 14:11:14;;;;;;;4.22;1.65;;;15.50;1.00;;;;;;5023191;28;20702;-66
2023/04/11 14:13:41;;;;;;;4.38;1.60;;;15.50;1.00;;;;;;5021307;28;20741;-66
2023/04/11 14:16:08;;;;;;;6.32;1.67;;;15.60;1.00;;;;;;5024077;28;20199;-66
2023/04/11 14:18:35;;;;;;;7.50;2.08;;;15.90;1.00;;;;;;5027853;28;20203;-68
2023/04/11 14:21:06;;;;;;;5.60;1.70;;;16.00;1.00;;;;;;5046612;28;20204;-66
2023/04/11 14:23:33;;;;;;;5.30;1.90;;;16.10;1.00;;;;;;5020161;28;20215;-66
2023/04/11 14:26:00;;;;;;;6.80;1.70;;;16.10;1.00;;;;;;5035592;28;20199;-66
2023/04/11 14:28:27;;;;;;;4.72;1.65;;;15.90;1.00;;;;;;5031231;28;20287;-66
2023/04/11 14:30:55;;;;;;;5.22;1.30;;;15.80;1.00;;;;;;5022229;28;20221;-66
2023/04/11 14:33:22;;;;;;;6.60;1.77;;;15.60;1.00;;;;;;5046332;28;20222;-66
2023/04/11 14:35:49;;;;;;;6.30;1.75;;;15.40;1.00;;;;;;5025369;28;20206;-65
2023/04/11 14:38:17;;;;;;;4.75;1.70;;;15.40;1.00;;;;;;5044917;28;20238;-66
2023/04/11 14:40:44;;;;;;;7.05;1.90;;;15.40;1.00;;;;;;5023465;28;20199;-65
2023/04/11 14:43:11;;;;;;;4.43;1.60;;;15.40;1.00;;;;;;5026415;28;20259;-66
2023/04/11 14:45:38;;;;;;;3.83;1.70;;;15.50;1.00;;;;;;5043843;28;20199;-66
2023/04/11 14:48:05;;;;;;;5.22;1.52;;;15.50;1.00;;;;;;5045044;28;20543;-66
2023/04/11 14:50:32;;;;;;;3.97;1.40;;;15.30;1.00;;;;;;5025564;28;20208;-66
2023/04/11 14:53:00;;;;;;;3.90;1.58;;;15.40;1.00;;;;;;5043288;28;20192;-66
2023/04/11 14:55:27;;;;;;;5.00;1.33;;;15.20;1.00;;;;;;5028246;28;20207;-66
2023/04/11 14:57:55;;;;;;;4.45;1.60;;;15.00;1.00;;;;;;5045136;28;20696;-66
2023/04/11 15:00:23;;;;;;;3.38;1.55;;;15.00;1.00;;;;;;5044902;28;20505;-66
2023/04/11 15:02:52;;;;;;;5.10;1.70;;;15.20;1.00;;;;;;5008739;28;20243;-67
2023/04/11 15:05:21;;;;;;;6.07;2.75;;;15.30;1.00;;;;;;5025392;28;20864;-68
2023/04/11 15:07:50;;;;;;;5.72;1.65;;;15.40;1.00;;;;;;5009240;28;20199;-68
2023/04/11 15:10:20;;;;;;;7.22;1.85;;;15.50;1.00;;;;;;5040930;28;20231;-68
2023/04/11 15:12:48;;;;;;;6.43;2.10;;;15.60;1.00;;;;;;5023491;28;20245;-68
2023/04/11 15:15:15;;;;;;;6.82;3.03;;;15.30;1.00;;;;;;5024829;28;20282;-67
2023/04/11 15:17:47;;;;;;;4.90;2.08;;;15.10;1.00;;;;;;5026470;28;20199;-67
2023/04/11 15:20:15;;;;;;;5.05;1.77;;;15.00;1.00;;;;;;5031023;28;20203;-67
2023/04/11 15:22:44;;;;;;;5.30;1.53;;;14.90;1.00;;;;;;5025729;28;20192;-67
2023/04/11 15:25:13;;;;;;;7.00;1.75;;;15.00;1.00;;;;;;5040894;28;20195;-67
2023/04/11 15:27:41;;;;;;;4.60;2.00;;;15.00;1.00;;;;;;5021157;28;20813;-66
2023/04/11 15:30:10;;;;;;;5.40;2.10;;;15.00;1.00;;;;;;5005792;28;20208;-66
2023/04/11 15:32:43;;;;;;;6.78;1.98;;;15.00;1.00;;;;;;5022751;28;20200;-66
2023/04/11 15:35:11;;;;;;;5.20;1.88;;;15.20;1.00;;;;;;5041103;28;20239;-67
2023/04/11 15:37:38;;;;;;;4.38;1.70;;;15.40;1.00;;;;;;5040051;28;20199;-67